Time;durP1;ratioP1;P1;durP2;ratioP2;P2;SDS_P1;SDS_P2;PMS_P1;PMS_P2;Temp;Humidity;BMP_temperature;BMP_pressure;BME280_temperature;BME280_humidity;BME280_pressure;Samples;Min_cycle;Max_cycle;Signal;HPM_P1;HPM_P2
2021/05/09 00:01:11;;;;;;;22.67;7.80;;;;;;;12.55;74.45;100568.19;5098976;28;20090;-66
2021/05/09 00:03:36;;;;;;;23.40;8.00;;;;;;;12.51;74.73;100569.09;5096492;28;20133;-66
2021/05/09 00:06:02;;;;;;;21.58;7.60;;;;;;;12.47;74.98;100563.84;5100119;28;20106;-66
2021/05/09 00:08:27;;;;;;;22.10;8.20;;;;;;;12.45;74.89;100553.25;5097101;28;20107;-66
2021/05/09 00:10:53;;;;;;;22.70;7.88;;;;;;;12.40;75.22;100555.03;5100401;28;20670;-66
2021/05/09 00:13:18;;;;;;;21.60;7.50;;;;;;;12.36;75.29;100554.19;5097885;28;20066;-67
2021/05/09 00:15:43;;;;;;;22.73;7.85;;;;;;;12.30;75.53;100548.91;5097273;28;20020;-66
2021/05/09 00:18:09;;;;;;;27.98;8.50;;;;;;;12.29;75.62;100551.59;5099931;28;20062;-66
2021/05/09 00:20:34;;;;;;;21.98;7.80;;;;;;;12.27;75.89;100548.94;5098735;28;20028;-66
2021/05/09 00:23:00;;;;;;;22.77;8.10;;;;;;;12.26;75.93;100541.00;5102367;28;20078;-66
2021/05/09 00:25:25;;;;;;;23.42;8.10;;;;;;;12.22;75.86;100542.81;5101220;27;20035;-66
2021/05/09 00:27:50;;;;;;;22.02;7.85;;;;;;;12.19;76.24;100535.75;5102698;28;20102;-66
2021/05/09 00:30:16;;;;;;;23.92;7.75;;;;;;;12.15;76.27;100528.72;5105535;28;20111;-66
2021/05/09 00:32:45;;;;;;;22.77;8.20;;;;;;;12.13;76.26;100533.16;5097737;28;20113;-66
2021/05/09 00:35:11;;;;;;;23.67;8.07;;;;;;;12.08;76.72;100527.00;5103659;28;20032;-66
2021/05/09 00:37:37;;;;;;;22.75;8.02;;;;;;;12.07;76.95;100514.63;5099549;28;20059;-66
2021/05/09 00:40:03;;;;;;;22.67;8.15;;;;;;;12.07;76.51;100522.59;5102418;28;20028;-67
2021/05/09 00:42:29;;;;;;;22.38;8.13;;;;;;;12.02;76.72;100517.31;5101797;28;20355;-66
2021/05/09 00:44:54;;;;;;;23.05;8.13;;;;;;;11.99;77.02;100516.47;5104015;28;20034;-67
2021/05/09 00:47:19;;;;;;;24.10;8.60;;;;;;;11.97;77.09;100523.53;5099984;28;20024;-66
2021/05/09 00:49:45;;;;;;;24.13;8.43;;;;;;;11.95;77.03;100515.59;5104623;28;20016;-66
2021/05/09 00:52:12;;;;;;;22.65;7.78;;;;;;;11.90;77.43;100508.53;5098839;28;20433;-67
2021/05/09 00:54:58;;;;;;;23.67;8.50;;;;;;;11.91;76.77;100505.00;5096353;28;20548;-66
2021/05/09 00:57:24;;;;;;;24.20;9.07;;;;;;;11.88;77.87;100508.56;5100415;28;20069;-66
2021/05/09 00:59:55;;;;;;;24.08;8.45;;;;;;;11.83;77.51;100511.22;5094677;28;20031;-66
2021/05/09 01:02:21;;;;;;;23.25;8.88;;;;;;;11.79;78.18;100505.97;5098658;28;20027;-66
2021/05/09 01:04:46;;;;;;;24.75;8.48;;;;;;;11.79;78.16;100501.53;5099699;28;20019;-66
2021/05/09 01:07:14;;;;;;;25.35;8.50;;;;;;;11.79;78.17;100500.69;5101790;28;20371;-66
2021/05/09 01:09:39;;;;;;;24.90;8.30;;;;;;;11.76;78.42;100500.69;5099116;28;20032;-66
2021/05/09 01:12:05;;;;;;;24.25;8.60;;;;;;;11.68;78.82;100492.81;5099510;28;20043;-66
2021/05/09 01:14:30;;;;;;;23.30;8.45;;;;;;;11.66;79.16;100491.91;5095508;28;20020;-66
2021/05/09 01:16:56;;;;;;;24.02;8.57;;;;;;;11.64;79.10;100489.28;5096488;28;20553;-66
2021/05/09 01:19:21;;;;;;;23.08;8.27;;;;;;;11.61;79.14;100489.31;5100567;28;20028;-65
2021/05/09 01:21:47;;;;;;;23.42;8.82;;;;;;;11.59;79.40;100480.50;5096961;28;20024;-67
2021/05/09 01:24:13;;;;;;;23.83;8.80;;;;;;;11.60;79.43;100481.38;5096613;28;20028;-66
2021/05/09 01:26:38;;;;;;;22.27;8.65;;;;;;;11.58;79.58;100485.81;5098990;28;20107;-66
2021/05/09 01:29:04;;;;;;;21.92;8.35;;;;;;;11.56;79.85;100475.19;5097350;28;20023;-66
2021/05/09 01:31:29;;;;;;;23.63;8.48;;;;;;;11.54;79.53;100474.34;5095998;28;20031;-66
2021/05/09 01:33:54;;;;;;;24.92;8.80;;;;;;;11.50;80.08;100470.84;5097328;28;20435;-66
2021/05/09 01:36:20;;;;;;;23.05;8.85;;;;;;;11.50;80.02;100467.28;5099361;28;20040;-66
2021/05/09 01:38:45;;;;;;;24.10;8.95;;;;;;;11.44;80.33;100462.91;5097648;28;20478;-66
2021/05/09 01:41:10;;;;;;;24.23;9.00;;;;;;;11.40;80.62;100466.50;5097926;28;20023;-66
2021/05/09 01:43:37;;;;;;;25.38;8.95;;;;;;;11.37;80.89;100458.53;5095461;28;20075;-66
2021/05/09 01:46:03;;;;;;;23.67;8.60;;;;;;;11.35;81.20;100455.03;5096931;28;20024;-66
2021/05/09 01:48:28;;;;;;;26.45;8.57;;;;;;;11.31;81.21;100456.81;5097594;28;20031;-66
2021/05/09 01:50:54;;;;;;;24.15;8.77;;;;;;;11.28;81.29;100454.16;5097523;28;20028;-66
2021/05/09 01:53:20;;;;;;;23.95;8.60;;;;;;;11.25;81.53;100456.84;5097039;28;20016;-66
2021/05/09 01:55:45;;;;;;;23.90;8.40;;;;;;;11.22;81.81;100458.63;5096576;28;20024;-66
2021/05/09 01:58:10;;;;;;;24.63;8.38;;;;;;;11.19;82.01;100453.34;5096893;28;20040;-66
2021/05/09 02:00:36;;;;;;;23.98;8.82;;;;;;;11.14;82.21;100451.59;5098109;28;20105;-66
2021/05/09 02:03:01;;;;;;;21.95;8.30;;;;;;;11.12;82.56;100449.84;5096429;28;20467;-66
2021/05/09 02:05:26;;;;;;;23.15;8.30;;;;;;;11.09;82.55;100444.56;5102494;28;20038;-67
2021/05/09 02:07:52;;;;;;;23.40;8.63;;;;;;;11.06;83.06;100448.09;5098796;28;20107;-66
2021/05/09 02:10:17;;;;;;;24.40;8.70;;;;;;;11.06;82.83;100452.53;5097208;28;20023;-66
2021/05/09 02:12:43;;;;;;;28.15;9.70;;;;;;;11.04;83.38;100441.94;5101558;28;20107;-67
2021/05/09 02:15:09;;;;;;;24.90;9.00;;;;;;;10.99;83.48;100441.06;5102234;28;20077;-66
2021/05/09 02:17:35;;;;;;;24.17;9.00;;;;;;;10.96;83.77;100425.22;5103707;28;20028;-66
2021/05/09 02:20:02;;;;;;;23.58;9.15;;;;;;;10.99;83.81;100427.84;5102019;28;20020;-66
2021/05/09 02:22:28;;;;;;;24.80;9.50;;;;;;;11.00;84.11;100421.69;5099956;28;20441;-66
2021/05/09 02:24:53;;;;;;;25.13;9.85;;;;;;;10.99;84.14;100412.88;5102332;28;20103;-66
2021/05/09 02:27:18;;;;;;;24.65;9.43;;;;;;;11.04;84.04;100411.94;5104182;28;20112;-66
2021/05/09 02:29:44;;;;;;;24.38;9.75;;;;;;;11.02;83.98;100406.66;5098784;28;20020;-66
2021/05/09 02:32:09;;;;;;;24.50;9.32;;;;;;;10.99;83.86;100402.31;5103995;28;20077;-66
2021/05/09 02:34:35;;;;;;;26.02;9.93;;;;;;;10.96;84.27;100397.00;5099231;28;20039;-66
2021/05/09 02:37:03;;;;;;;26.98;9.82;;;;;;;10.97;84.15;100396.13;5104674;28;20410;-66
2021/05/09 02:39:28;;;;;;;23.85;9.82;;;;;;;10.95;84.08;100389.97;5105211;28;20031;-66
2021/05/09 02:41:54;;;;;;;25.52;10.00;;;;;;;10.96;84.22;100402.28;5100411;28;20042;-66
2021/05/09 02:44:19;;;;;;;25.42;9.50;;;;;;;10.92;84.42;100402.31;5102854;28;20055;-66
2021/05/09 02:46:45;;;;;;;23.98;9.80;;;;;;;10.90;84.56;100398.81;5103352;28;20039;-66
2021/05/09 02:49:10;;;;;;;25.17;9.73;;;;;;;10.90;84.80;100390.88;5102139;28;20024;-66
2021/05/09 02:51:35;;;;;;;24.35;9.50;;;;;;;10.88;84.79;100395.28;5101486;28;20032;-66
2021/05/09 02:54:01;;;;;;;23.60;9.60;;;;;;;10.87;84.75;100397.03;5099425;28;20020;-66
2021/05/09 02:56:26;;;;;;;23.67;9.38;;;;;;;10.84;85.02;100401.47;5099548;28;20227;-65
2021/05/09 02:58:52;;;;;;;23.90;9.07;;;;;;;10.78;85.59;100397.09;5099095;28;20149;-65
2021/05/09 03:01:17;;;;;;;24.50;9.43;;;;;;;10.75;85.27;100397.97;5100668;28;20024;-66
2021/05/09 03:03:42;;;;;;;25.02;9.77;;;;;;;10.72;85.46;100391.84;5101713;28;20045;-66
2021/05/09 03:06:08;;;;;;;27.30;9.63;;;;;;;10.69;86.03;100398.00;5100434;28;20531;-66
2021/05/09 03:08:34;;;;;;;24.23;9.50;;;;;;;10.66;86.78;100394.47;5100554;28;20111;-66
2021/05/09 03:11:00;;;;;;;24.23;9.40;;;;;;;10.64;86.48;100397.13;5101266;28;20031;-66
2021/05/09 03:13:25;;;;;;;25.02;9.35;;;;;;;10.65;86.77;100404.19;5098343;28;20051;-66
2021/05/09 03:15:51;;;;;;;23.95;9.48;;;;;;;10.64;86.43;100399.75;5098652;28;20111;-66
2021/05/09 03:18:16;;;;;;;26.70;10.00;;;;;;;10.62;87.07;100393.63;5100462;28;20024;-66
2021/05/09 03:20:42;;;;;;;24.65;9.57;;;;;;;10.59;87.29;100388.34;5098178;28;20023;-66
2021/05/09 03:23:07;;;;;;;25.30;9.48;;;;;;;10.57;87.46;100401.56;5101391;28;20028;-65
2021/05/09 03:25:33;;;;;;;22.48;8.77;;;;;;;10.55;87.96;100387.47;5097886;28;20411;-66
2021/05/09 03:27:59;;;;;;;24.08;9.45;;;;;;;10.54;88.10;100390.09;5100144;28;20027;-65
2021/05/09 03:30:25;;;;;;;24.48;9.50;;;;;;;10.54;88.34;100374.25;5098479;28;20055;-66
2021/05/09 03:32:53;;;;;;;23.60;9.45;;;;;;;10.53;88.44;100375.13;5099675;28;20055;-66
2021/05/09 03:35:19;;;;;;;24.55;9.70;;;;;;;10.50;88.48;100386.59;5097560;28;20081;-66
2021/05/09 03:37:44;;;;;;;25.77;9.43;;;;;;;10.51;88.76;100376.91;5100548;28;20103;-66
2021/05/09 03:40:09;;;;;;;24.17;9.00;;;;;;;10.50;88.97;100381.31;5098924;28;20039;-66
2021/05/09 03:42:35;;;;;;;25.20;9.52;;;;;;;10.52;88.81;100373.38;5098744;28;20035;-65
2021/05/09 03:45:01;;;;;;;24.92;9.52;;;;;;;10.51;89.17;100371.63;5100517;28;20032;-66
2021/05/09 03:47:26;;;;;;;24.20;10.00;;;;;;;10.50;88.91;100356.63;5100725;28;20023;-66
2021/05/09 03:49:56;;;;;;;25.48;9.90;;;;;;;10.49;89.16;100353.13;5102277;28;20046;-66
2021/05/09 03:52:23;;;;;;;24.80;9.80;;;;;;;10.52;89.12;100352.25;5102045;28;20027;-66
2021/05/09 03:54:49;;;;;;;24.63;9.45;;;;;;;10.51;89.38;100350.47;5098830;28;20024;-66
2021/05/09 03:57:14;;;;;;;24.10;9.80;;;;;;;10.50;89.87;100349.59;5102113;28;20034;-66
2021/05/09 03:59:40;;;;;;;25.90;9.57;;;;;;;10.51;89.86;100337.25;5103019;28;20378;-66
2021/05/09 04:02:06;;;;;;;23.52;9.20;;;;;;;10.51;89.58;100339.91;5103886;28;20395;-65
2021/05/09 04:04:31;;;;;;;24.83;9.38;;;;;;;10.45;89.74;100333.75;5102522;28;20036;-66
2021/05/09 04:06:56;;;;;;;24.30;9.10;;;;;;;10.40;89.92;100338.19;5102785;28;20027;-66
2021/05/09 04:09:22;;;;;;;24.10;9.43;;;;;;;10.38;90.20;100334.69;5097799;28;20116;-66
2021/05/09 04:11:47;;;;;;;25.38;9.50;;;;;;;10.38;90.51;100337.31;5104260;28;20523;-66
2021/05/09 04:14:12;;;;;;;24.90;9.68;;;;;;;10.40;90.84;100332.03;5101138;28;20076;-66
2021/05/09 04:16:37;;;;;;;24.88;9.93;;;;;;;10.41;90.75;100339.03;5101997;28;20500;-65
2021/05/09 04:19:03;;;;;;;24.80;10.00;;;;;;;10.41;90.42;100350.50;5097764;28;20024;-66
2021/05/09 04:21:29;;;;;;;26.98;10.18;;;;;;;10.44;90.34;100342.56;5100687;28;20020;-66
2021/05/09 04:23:55;;;;;;;25.15;9.80;;;;;;;10.50;90.08;100346.06;5098729;28;20039;-66
2021/05/09 04:26:20;;;;;;;26.67;10.10;;;;;;;10.53;89.70;100351.34;5096890;28;20169;-65
2021/05/09 04:28:46;;;;;;;25.83;9.75;;;;;;;10.60;88.84;100350.44;5102105;28;20035;-66
2021/05/09 04:31:11;;;;;;;25.55;10.23;;;;;;;10.64;88.78;100346.91;5096320;28;20024;-66
2021/05/09 04:33:36;;;;;;;25.70;9.98;;;;;;;10.67;88.33;100348.66;5096800;28;20035;-65
2021/05/09 04:36:02;;;;;;;24.50;9.75;;;;;;;10.70;88.17;100346.88;5101082;28;20062;-66
2021/05/09 04:38:27;;;;;;;25.50;9.48;;;;;;;10.78;87.60;100344.22;5098280;28;20107;-66
2021/05/09 04:40:53;;;;;;;24.77;9.88;;;;;;;10.81;87.46;100344.19;5099417;28;20103;-66
2021/05/09 04:43:19;;;;;;;23.55;9.23;;;;;;;10.83;87.00;100345.06;5097597;28;20024;-66
2021/05/09 04:45:46;;;;;;;24.88;9.63;;;;;;;10.84;86.77;100338.88;5095571;28;20051;-65
2021/05/09 04:48:12;;;;;;;25.55;9.68;;;;;;;10.86;86.96;100346.81;5099882;28;20024;-65
2021/05/09 04:50:37;;;;;;;25.23;9.63;;;;;;;10.87;86.50;100344.16;5095891;28;20385;-66
2021/05/09 04:53:03;;;;;;;25.45;9.13;;;;;;;10.89;86.14;100341.50;5097061;28;20028;-66
2021/05/09 04:55:28;;;;;;;26.48;9.82;;;;;;;10.93;86.47;100336.19;5099956;28;20069;-65
2021/05/09 04:57:53;;;;;;;25.33;9.50;;;;;;;10.99;86.18;100335.28;5095709;28;20016;-65
2021/05/09 05:00:19;;;;;;;24.42;9.80;;;;;;;11.09;85.32;100336.13;5098583;28;20020;-65
2021/05/09 05:02:46;;;;;;;25.45;9.55;;;;;;;11.18;84.83;100335.19;5095745;28;20035;-67
2021/05/09 05:05:12;;;;;;;23.90;9.43;;;;;;;11.23;84.57;100334.25;5097998;28;20027;-66
2021/05/09 05:07:38;;;;;;;26.38;10.02;;;;;;;11.29;84.10;100342.16;5101271;28;20466;-66
2021/05/09 05:10:04;;;;;;;24.50;9.68;;;;;;;11.33;83.98;100333.31;5102840;28;20024;-65
2021/05/09 05:12:30;;;;;;;25.20;9.82;;;;;;;11.40;83.56;100325.31;5099827;28;20481;-65
2021/05/09 05:14:55;;;;;;;24.55;9.75;;;;;;;11.47;83.26;100327.91;5103325;28;20024;-66
2021/05/09 05:17:20;;;;;;;25.67;9.85;;;;;;;11.49;82.88;100328.78;5098167;28;20031;-66
2021/05/09 05:19:46;;;;;;;23.42;9.15;;;;;;;11.55;82.79;100332.25;5103786;28;20028;-66
2021/05/09 05:22:11;;;;;;;24.85;9.65;;;;;;;11.60;82.22;100326.03;5100403;28;20028;-66
2021/05/09 05:24:36;;;;;;;26.60;10.70;;;;;;;11.68;81.88;100323.34;5102967;28;20042;-66
2021/05/09 05:27:02;;;;;;;23.48;9.48;;;;;;;11.77;80.66;100325.91;5100944;28;20079;-66
2021/05/09 05:29:27;;;;;;;23.88;9.48;;;;;;;11.79;80.63;100326.75;5099793;28;20032;-66
2021/05/09 05:31:53;;;;;;;23.70;9.85;;;;;;;11.80;80.13;100317.94;5102584;28;20138;-67
2021/05/09 05:34:18;;;;;;;23.92;9.98;;;;;;;11.83;80.02;100312.59;5102247;28;20496;-65
2021/05/09 05:36:45;;;;;;;24.45;9.48;;;;;;;11.85;79.58;100302.91;5101466;28;20044;-67
2021/05/09 05:39:11;;;;;;;23.85;9.48;;;;;;;11.94;78.83;100306.38;5101746;28;20032;-67
2021/05/09 05:41:36;;;;;;;24.35;9.25;;;;;;;12.02;78.65;100310.69;5103117;28;20032;-66
2021/05/09 05:44:02;;;;;;;24.27;9.52;;;;;;;12.14;77.98;100307.03;5100784;28;20028;-67
2021/05/09 05:46:28;;;;;;;22.95;9.30;;;;;;;12.26;77.86;100307.81;5094173;28;20161;-66
2021/05/09 05:48:54;;;;;;;24.50;9.35;;;;;;;12.37;76.34;100301.47;5100410;28;20030;-66
2021/05/09 05:51:19;;;;;;;23.08;8.68;;;;;;;12.47;75.32;100294.31;5104811;28;20024;-66
2021/05/09 05:53:45;;;;;;;24.00;9.30;;;;;;;12.56;75.85;100304.78;5100264;28;20032;-66
2021/05/09 05:56:10;;;;;;;22.13;8.75;;;;;;;12.64;75.50;100306.47;5107199;28;20020;-68
2021/05/09 05:58:35;;;;;;;22.33;8.82;;;;;;;12.69;74.40;100297.56;5101713;28;20024;-66
2021/05/09 06:01:01;;;;;;;22.70;8.57;;;;;;;12.75;73.53;100301.91;5101732;28;20535;-66
2021/05/09 06:03:27;;;;;;;23.02;9.02;;;;;;;12.77;73.50;100309.84;5098339;28;20059;-66
2021/05/09 06:05:54;;;;;;;22.75;8.77;;;;;;;12.79;73.19;100302.75;5101558;28;20016;-66
2021/05/09 06:08:19;;;;;;;22.23;8.30;;;;;;;12.85;71.88;100295.59;5101443;28;20024;-66
2021/05/09 06:10:45;;;;;;;21.55;8.18;;;;;;;12.93;71.54;100305.22;5106417;28;20508;-66
2021/05/09 06:13:11;;;;;;;22.17;7.88;;;;;;;13.01;70.96;100288.28;5108563;28;20426;-67
2021/05/09 06:15:36;;;;;;;20.42;7.38;;;;;;;13.10;69.60;100279.31;5106056;28;20031;-67
2021/05/09 06:18:01;;;;;;;22.10;8.38;;;;;;;13.16;69.92;100276.56;5105985;28;20115;-67
2021/05/09 06:20:27;;;;;;;21.35;7.57;;;;;;;13.22;69.67;100283.56;5106954;28;20024;-66
2021/05/09 06:23:01;;;;;;;21.95;7.00;;;;;;;13.29;69.68;100279.03;5106546;28;20032;-66
2021/05/09 06:25:27;;;;;;;21.50;7.40;;;;;;;13.39;68.97;100278.03;5106591;28;20035;-67
2021/05/09 06:27:52;;;;;;;22.27;7.30;;;;;;;13.50;68.35;100270.75;5104247;28;20049;-67
2021/05/09 06:30:19;;;;;;;22.55;7.38;;;;;;;13.70;67.29;100269.53;5105210;28;20052;-66
2021/05/09 06:32:44;;;;;;;20.60;6.65;;;;;;;13.89;65.57;100263.00;5103716;28;20020;-68
2021/05/09 06:35:10;;;;;;;21.67;6.90;;;;;;;14.04;65.30;100258.31;5104585;28;20039;-65
2021/05/09 06:37:36;;;;;;;21.35;6.70;;;;;;;14.18;63.88;100266.00;5104251;28;20048;-67
2021/05/09 06:40:02;;;;;;;20.13;6.60;;;;;;;14.36;64.80;100262.06;5106538;28;20024;-67
2021/05/09 06:42:28;;;;;;;19.48;6.20;;;;;;;14.57;62.78;100253.66;5102998;28;20035;-66
2021/05/09 06:44:58;;;;;;;19.30;6.43;;;;;;;14.76;61.81;100246.19;5106907;28;20042;-67
2021/05/09 06:47:23;;;;;;;19.80;6.43;;;;;;;14.99;61.58;100242.13;5101258;28;20066;-65
2021/05/09 06:49:49;;;;;;;20.00;6.35;;;;;;;15.16;61.65;100241.72;5102126;28;20051;-67
2021/05/09 06:52:15;;;;;;;21.80;6.60;;;;;;;15.36;60.73;100246.53;5098728;28;20036;-65
2021/05/09 06:54:40;;;;;;;18.70;6.03;;;;;;;15.58;61.10;100233.59;5098144;28;20028;-66
2021/05/09 06:57:06;;;;;;;21.13;6.50;;;;;;;15.83;60.28;100231.16;5102883;28;20409;-66
2021/05/09 06:59:31;;;;;;;19.48;6.38;;;;;;;16.10;58.43;100217.97;5097590;28;20118;-66
2021/05/09 07:01:57;;;;;;;18.67;6.00;;;;;;;16.39;58.61;100211.78;5103686;28;20381;-66
2021/05/09 07:04:22;;;;;;;19.10;5.90;;;;;;;16.66;57.03;100211.91;5098994;28;20475;-66
2021/05/09 07:06:48;;;;;;;18.33;6.22;;;;;;;17.00;56.93;100221.53;5095477;28;20042;-66
2021/05/09 07:09:13;;;;;;;18.70;5.78;;;;;;;17.23;55.41;100223.47;5095223;28;20020;-66
2021/05/09 07:11:39;;;;;;;19.33;6.10;;;;;;;17.40;53.97;100220.22;5092959;28;20024;-66
2021/05/09 07:14:05;;;;;;;19.02;6.32;;;;;;;17.55;54.23;100225.97;5098079;28;20385;-66
2021/05/09 07:16:35;;;;;;;18.40;5.60;;;;;;;17.62;54.18;100223.94;5097255;28;20434;-66
2021/05/09 07:19:02;;;;;;;18.85;5.93;;;;;;;17.57;53.88;100232.13;5098412;28;20073;-66
2021/05/09 07:21:31;;;;;;;20.20;5.97;;;;;;;17.48;53.45;100224.44;5103793;28;20347;-66
2021/05/09 07:23:56;;;;;;;19.73;5.95;;;;;;;17.50;54.07;100218.09;5097888;28;20051;-66
2021/05/09 07:26:22;;;;;;;18.20;5.70;;;;;;;17.72;53.23;100204.00;5101893;28;20495;-66
2021/05/09 07:28:48;;;;;;;18.52;5.82;;;;;;;17.93;53.09;100181.00;5096528;28;20043;-66
2021/05/09 07:31:14;;;;;;;19.38;5.88;;;;;;;18.08;52.47;100177.75;5100915;28;20069;-66
2021/05/09 07:33:40;;;;;;;19.50;5.57;;;;;;;18.18;54.17;100180.97;5105333;28;20069;-66
2021/05/09 07:36:06;;;;;;;20.13;5.88;;;;;;;18.31;53.07;100181.38;5103592;28;20097;-66
2021/05/09 07:38:31;;;;;;;19.80;5.97;;;;;;;18.47;51.91;100174.50;5104063;28;20028;-66
2021/05/09 07:40:56;;;;;;;19.33;6.10;;;;;;;18.68;51.91;100166.53;5105179;28;20031;-66
2021/05/09 07:43:22;;;;;;;19.13;5.88;;;;;;;18.92;52.15;100177.25;5102969;28;20028;-66
2021/05/09 07:45:47;;;;;;;20.17;6.10;;;;;;;18.89;51.25;100182.72;5105835;28;20039;-66
2021/05/09 07:48:13;;;;;;;19.13;6.15;;;;;;;18.68;51.60;100181.75;5102620;28;20020;-65
2021/05/09 07:50:39;;;;;;;19.23;6.45;;;;;;;18.60;51.97;100168.66;5103851;28;20444;-66
2021/05/09 07:53:05;;;;;;;19.20;6.13;;;;;;;18.74;51.69;100170.78;5103715;28;20023;-66
2021/05/09 07:55:31;;;;;;;19.42;6.38;;;;;;;18.81;51.72;100159.78;5104101;28;20047;-66
2021/05/09 07:57:56;;;;;;;19.63;6.00;;;;;;;18.83;52.16;100165.06;5105076;28;20031;-66
2021/05/09 08:00:23;;;;;;;21.00;6.15;;;;;;;18.85;51.64;100155.16;5102426;28;20379;-66
2021/05/09 08:02:51;;;;;;;18.35;5.55;;;;;;;18.88;51.06;100159.56;5105490;28;20470;-66
2021/05/09 08:05:22;;;;;;;18.65;5.95;;;;;;;18.89;52.65;100161.31;5098482;28;20032;-66
2021/05/09 08:07:57;;;;;;;17.80;5.80;;;;;;;18.97;51.59;100154.72;5098510;28;20433;-66
2021/05/09 08:10:26;;;;;;;19.05;5.95;;;;;;;19.11;51.94;100161.28;5099572;28;20019;-66
2021/05/09 08:12:52;;;;;;;19.45;6.20;;;;;;;19.22;51.40;100161.72;5105116;28;20024;-66
2021/05/09 08:15:21;;;;;;;21.42;6.25;;;;;;;19.33;51.16;100155.88;5101965;28;20077;-67
2021/05/09 08:17:46;;;;;;;18.30;5.90;;;;;;;19.50;50.78;100157.84;5098250;28;20024;-66
2021/05/09 08:20:12;;;;;;;18.70;5.82;;;;;;;19.66;50.02;100148.19;5104918;28;20370;-66
2021/05/09 08:22:38;;;;;;;19.42;5.80;;;;;;;20.08;50.44;100158.88;5103155;27;20039;-66
2021/05/09 08:25:05;;;;;;;19.00;5.90;;;;;;;20.79;47.94;100158.25;5103560;28;20413;-66
2021/05/09 08:27:33;;;;;;;19.20;5.60;;;;;;;21.54;45.99;100157.16;5103952;28;20055;-67
2021/05/09 08:29:58;;;;;;;17.98;5.70;;;;;;;21.93;44.64;100155.09;5102909;28;20024;-67
2021/05/09 08:32:24;;;;;;;18.33;5.50;;;;;;;21.98;44.47;100150.38;5104336;28;20556;-67
2021/05/09 08:34:49;;;;;;;18.98;5.57;;;;;;;21.71;45.53;100161.66;5101821;28;20471;-65
2021/05/09 08:37:15;;;;;;;20.17;5.40;;;;;;;21.75;46.77;100148.91;5097329;28;20044;-64
2021/05/09 08:39:40;;;;;;;19.23;5.50;;;;;;;21.83;47.46;100140.41;5104219;28;20034;-64
2021/05/09 08:42:06;;;;;;;19.52;5.50;;;;;;;21.82;46.58;100139.56;5102637;28;20023;-65
2021/05/09 08:44:33;;;;;;;18.83;5.60;;;;;;;21.87;45.84;100136.63;5103074;28;20028;-64
2021/05/09 08:47:02;;;;;;;18.45;5.38;;;;;;;22.05;46.37;100137.47;5103567;28;20031;-64
2021/05/09 08:49:29;;;;;;;19.92;5.88;;;;;;;22.07;45.28;100135.53;5102298;28;20115;-63
2021/05/09 08:51:54;;;;;;;19.08;5.65;;;;;;;22.10;45.62;100141.59;5103036;28;20037;-64
2021/05/09 08:54:20;;;;;;;19.17;5.72;;;;;;;22.14;44.71;100138.78;5099555;28;20027;-64
2021/05/09 08:56:45;;;;;;;18.02;5.50;;;;;;;22.46;44.96;100147.78;5097256;28;20060;-63
2021/05/09 08:59:10;;;;;;;18.38;5.55;;;;;;;22.77;45.61;100135.25;5103877;28;20070;-63
2021/05/09 09:01:40;;;;;;;18.23;5.50;;;;;;;22.99;44.71;100142.94;5099047;27;20030;-65
2021/05/09 09:04:06;;;;;;;18.77;5.80;;;;;;;22.82;45.67;100143.94;5098345;28;20027;-65
2021/05/09 09:06:42;;;;;;;19.55;6.15;;;;;;;22.35;45.07;100158.28;5091867;28;20051;-64
2021/05/09 09:09:24;;;;;;;19.10;5.95;;;;;;;22.21;45.64;100154.50;5092568;28;20024;-64
2021/05/09 09:11:52;;;;;;;18.15;6.10;;;;;;;22.40;45.77;100161.59;5094531;28;20371;-64
2021/05/09 09:14:18;;;;;;;18.25;5.97;;;;;;;22.56;44.43;100157.06;5099221;28;20028;-63
2021/05/09 09:16:43;;;;;;;19.67;5.95;;;;;;;22.79;44.76;100147.69;5099430;28;20115;-63
2021/05/09 09:19:11;;;;;;;18.17;5.97;;;;;;;22.88;45.11;100154.38;5097351;28;20483;-64
2021/05/09 09:21:37;;;;;;;19.35;5.80;;;;;;;22.81;44.23;100147.59;5098666;28;20043;-64
2021/05/09 09:24:10;;;;;;;18.77;5.93;;;;;;;22.92;45.55;100155.94;5096442;28;20027;-64
2021/05/09 09:26:41;;;;;;;17.63;5.82;;;;;;;22.78;45.11;100148.63;5091650;28;20356;-65
2021/05/09 09:29:26;;;;;;;19.50;6.35;;;;;;;22.58;45.54;100125.53;5093380;28;20024;-64
2021/05/09 09:31:57;;;;;;;19.58;6.30;;;;;;;22.44;45.44;100090.44;5095274;28;20016;-66
2021/05/09 09:34:36;;;;;;;17.98;5.63;;;;;;;22.60;45.40;100071.56;5089706;28;20019;-66
2021/05/09 09:37:02;;;;;;;18.67;6.00;;;;;;;22.92;45.61;100047.25;5092659;28;20083;-64
2021/05/09 09:39:59;;;;;;;18.45;5.60;;;;;;;23.36;44.91;100069.81;5093975;28;20059;-65
2021/05/09 09:42:34;;;;;;;20.63;6.10;;;;;;;23.06;44.86;100117.38;5090906;28;20032;-65
2021/05/09 09:45:20;;;;;;;20.05;6.35;;;;;;;23.66;44.08;100089.53;5095195;28;20060;-64
2021/05/09 09:47:59;;;;;;;20.90;6.28;;;;;;;23.84;43.59;100095.59;5098786;28;20031;-64
2021/05/09 09:50:47;;;;;;;17.40;5.53;;;;;;;25.50;41.88;100092.88;5097724;28;20518;-62
2021/05/09 09:53:39;;;;;;;18.85;5.85;;;;;;;27.27;37.49;100090.72;5098410;28;20533;-65
2021/05/09 09:56:04;;;;;;;19.52;5.57;;;;;;;28.12;34.32;100073.25;5096913;28;20379;-65
2021/05/09 09:58:43;;;;;;;18.80;6.25;;;;;;;27.44;36.34;100083.19;5101316;28;20035;-63
2021/05/09 10:01:10;;;;;;;17.90;5.82;;;;;;;26.53;36.69;100092.75;5096308;28;20031;-64
2021/05/09 10:03:36;;;;;;;17.70;5.68;;;;;;;27.07;36.48;100094.13;5101277;28;20036;-64
2021/05/09 10:06:01;;;;;;;19.45;6.03;;;;;;;26.85;37.22;100095.75;5101242;28;20031;-64
2021/05/09 10:08:27;;;;;;;19.60;5.57;;;;;;;26.89;38.06;100097.25;5100000;28;20109;-65
2021/05/09 10:10:54;;;;;;;19.83;5.63;;;;;;;27.71;35.31;100077.41;5096075;27;20016;-65
2021/05/09 10:13:21;;;;;;;19.67;5.70;;;;;;;27.12;34.62;100083.81;5096395;28;20036;-67
2021/05/09 10:15:47;;;;;;;17.30;5.65;;;;;;;25.70;37.91;100083.34;5106876;28;20092;-64
2021/05/09 10:18:14;;;;;;;18.60;5.60;;;;;;;25.10;39.18;100076.69;5105125;28;20024;-65
2021/05/09 10:20:40;;;;;;;17.88;5.65;;;;;;;24.83;39.09;100089.25;5105462;28;20470;-63
2021/05/09 10:23:07;;;;;;;18.65;5.75;;;;;;;24.17;40.53;100086.34;5106205;28;20027;-64
2021/05/09 10:25:47;;;;;;;17.90;5.70;;;;;;;23.84;41.24;100078.53;5104696;28;20070;-63
2021/05/09 10:28:15;;;;;;;23.17;5.80;;;;;;;23.59;40.65;100068.41;5105137;28;20084;-63
2021/05/09 10:30:49;;;;;;;19.65;6.00;;;;;;;23.55;41.63;100067.75;5104398;28;20160;-63
2021/05/09 10:33:40;;;;;;;19.05;6.00;;;;;;;22.75;44.86;100069.84;5104907;28;20069;-64
2021/05/09 10:36:34;;;;;;;17.90;6.00;;;;;;;22.34;45.11;100089.22;5102484;28;20044;-65
2021/05/09 10:39:07;;;;;;;18.17;6.20;;;;;;;22.20;45.34;100061.25;5100906;28;20105;-63
2021/05/09 10:41:55;;;;;;;18.73;6.30;;;;;;;22.03;47.39;100050.56;5106178;28;20035;-65
2021/05/09 10:44:43;;;;;;;20.10;6.10;;;;;;;21.84;47.77;100054.25;5106583;28;20104;-64
2021/05/09 10:47:32;;;;;;;18.63;6.40;;;;;;;21.69;49.39;100007.56;5103693;28;20040;-63
2021/05/09 10:50:35;;;;;;;19.08;6.43;;;;;;;23.31;47.64;100010.78;5100666;28;20421;-64
2021/05/09 10:53:00;;;;;;;24.15;6.88;;;;;;;24.91;41.40;99993.28;5101184;28;20035;-64
2021/05/09 10:55:44;;;;;;;20.73;6.25;;;;;;;24.55;42.48;99995.66;5106778;27;20024;-64
2021/05/09 10:58:19;;;;;;;19.90;6.40;;;;;;;24.22;42.61;100015.84;5103177;28;20028;-63
2021/05/09 11:00:59;;;;;;;19.27;6.13;;;;;;;24.33;43.34;100025.94;5103076;28;20047;-63
2021/05/09 11:03:37;;;;;;;18.63;6.07;;;;;;;25.10;43.23;100020.75;5099510;28;20103;-64
2021/05/09 11:06:09;;;;;;;18.95;6.20;;;;;;;25.88;39.45;100036.03;5101657;28;20020;-64
2021/05/09 11:08:43;;;;;;;21.33;6.10;;;;;;;25.62;39.97;100034.34;5106104;28;20046;-64
2021/05/09 11:11:13;;;;;;;19.08;5.97;;;;;;;25.01;41.26;100027.69;5104556;28;20036;-64
2021/05/09 11:13:56;;;;;;;19.25;5.93;;;;;;;24.85;41.85;100027.88;5105203;28;20398;-66
2021/05/09 11:16:23;;;;;;;18.65;6.00;;;;;;;24.59;41.76;100035.03;5106739;28;20034;-65
2021/05/09 11:19:11;;;;;;;18.92;6.18;;;;;;;24.53;42.37;100030.88;5103771;28;20039;-65